Time;durP1;ratioP1;P1;durP2;ratioP2;P2;SDS_P1;SDS_P2;PMS_P1;PMS_P2;Temp;Humidity;BMP_temperature;BMP_pressure;BME280_temperature;BME280_humidity;BME280_pressure;Samples;Min_cycle;Max_cycle;Signal;HPM_P1;HPM_P2
2024/03/21 00:02:32;;;;;;;54.20;15.13;;;;;;;;;;4980838;28;20069;-59
2024/03/21 00:05:19;;;;;;;55.65;14.35;;;;;;;;;;4980232;28;20058;-60
2024/03/21 00:08:11;;;;;;;47.92;14.65;;;;;;;;;;4986813;28;20053;-59
2024/03/21 00:11:04;;;;;;;50.83;15.95;;;;;;;;;;4984095;28;20428;-59
2024/03/21 00:13:57;;;;;;;51.90;14.93;;;;;;;;;;4980916;28;20062;-59
2024/03/21 00:16:57;;;;;;;49.55;13.50;;;;;;;;;;4958679;28;20055;-58
2024/03/21 00:19:36;;;;;;;51.17;14.40;;;;;;;;;;4943716;28;20059;-59
2024/03/21 00:22:02;;;;;;;55.33;15.57;;;;;;;;;;4943369;28;20059;-59
2024/03/21 00:24:29;;;;;;;39.35;12.88;;;;;;;;;;4938519;28;20071;-59
2024/03/21 00:27:01;;;;;;;46.38;13.68;;;;;;;;;;4940027;28;20059;-46
2024/03/21 00:29:28;;;;;;;53.78;14.73;;;;;;;;;;4943838;28;20429;-51
2024/03/21 00:32:01;;;;;;;51.63;14.68;;;;;;;;;;4941315;28;20501;-50
2024/03/21 00:34:27;;;;;;;50.07;14.33;;;;;;;;;;4943384;28;21917;-50
2024/03/21 00:36:53;;;;;;;50.95;14.93;;;;;;;;;;4946882;28;20306;-59
2024/03/21 00:39:27;;;;;;;54.67;14.38;;;;;;;;;;4939765;28;20059;-47
2024/03/21 00:41:53;;;;;;;61.65;14.90;;;;;;;;;;4941962;28;20051;-49
2024/03/21 00:44:20;;;;;;;48.20;12.77;;;;;;;;;;4944752;28;20066;-50
2024/03/21 00:46:52;;;;;;;44.03;13.48;;;;;;;;;;4946216;28;20788;-50
2024/03/21 00:49:19;;;;;;;48.75;14.13;;;;;;;;;;4945427;28;20595;-48
2024/03/21 00:51:45;;;;;;;45.45;13.40;;;;;;;;;;4938687;28;20055;-54
2024/03/21 00:54:18;;;;;;;46.95;12.40;;;;;;;;;;4943363;28;20528;-49
2024/03/21 00:56:45;;;;;;;49.17;13.43;;;;;;;;;;4939763;28;20066;-51
2024/03/21 00:59:19;;;;;;;44.88;12.35;;;;;;;;;;4956056;28;20114;-50
2024/03/21 01:01:46;;;;;;;44.53;12.02;;;;;;;;;;4941759;28;20067;-47
2024/03/21 01:04:13;;;;;;;39.75;11.77;;;;;;;;;;4947905;28;20480;-60
2024/03/21 01:06:46;;;;;;;38.20;11.95;;;;;;;;;;4941291;28;20065;-64
2024/03/21 01:09:12;;;;;;;47.15;12.73;;;;;;;;;;4940874;28;20496;-63
2024/03/21 01:11:39;;;;;;;46.88;11.68;;;;;;;;;;4940026;28;20515;-62
2024/03/21 01:14:12;;;;;;;46.88;13.60;;;;;;;;;;4938768;28;20067;-63
2024/03/21 01:16:38;;;;;;;31.27;10.65;;;;;;;;;;4938874;28;20071;-62
2024/03/21 01:19:18;;;;;;;38.25;13.10;;;;;;;;;;4947115;28;20070;-63
2024/03/21 01:21:48;;;;;;;48.30;12.63;;;;;;;;;;4940875;28;20059;-63
2024/03/21 01:24:20;;;;;;;50.60;13.95;;;;;;;;;;4941185;28;20070;-59
2024/03/21 01:27:07;;;;;;;56.38;14.85;;;;;;;;;;4942336;28;20055;-60
2024/03/21 01:29:59;;;;;;;50.83;13.70;;;;;;;;;;4944045;28;20065;-59
2024/03/21 01:32:46;;;;;;;58.60;14.82;;;;;;;;;;4940353;28;20062;-60
2024/03/21 01:35:39;;;;;;;46.10;12.80;;;;;;;;;;4943565;28;20113;-60
2024/03/21 01:38:25;;;;;;;41.95;12.73;;;;;;;;;;4943215;28;20559;-60
2024/03/21 01:41:18;;;;;;;44.22;12.32;;;;;;;;;;4944450;28;20405;-60
2024/03/21 01:44:04;;;;;;;57.13;13.77;;;;;;;;;;4944119;28;20476;-60
2024/03/21 01:46:56;;;;;;;47.30;14.35;;;;;;;;;;4964344;28;20062;-60
2024/03/21 01:49:43;;;;;;;57.65;14.23;;;;;;;;;;4944890;28;20247;-60
2024/03/21 01:52:36;;;;;;;47.15;12.15;;;;;;;;;;4950912;28;20472;-60
2024/03/21 01:55:22;;;;;;;55.90;12.23;;;;;;;;;;4951848;28;20077;-60
2024/03/21 01:58:15;;;;;;;50.05;11.23;;;;;;;;;;4969480;28;20109;-60
2024/03/21 02:01:14;;;;;;;49.83;13.30;;;;;;;;;;4949578;28;20067;-50
2024/03/21 02:04:06;;;;;;;51.17;11.95;;;;;;;;;;4950966;28;20047;-47
2024/03/21 02:07:00;;;;;;;39.92;11.77;;;;;;;;;;4945325;28;20452;-52
2024/03/21 02:09:49;;;;;;;44.67;12.32;;;;;;;;;;4943271;28;20082;-48
2024/03/21 02:12:43;;;;;;;43.83;12.02;;;;;;;;;;4946711;28;20441;-46
2024/03/21 02:15:29;;;;;;;44.28;11.75;;;;;;;;;;4943011;28;20070;-50
2024/03/21 02:18:28;;;;;;;50.40;14.07;;;;;;;;;;4950034;28;20059;-49
2024/03/21 02:24:06;;;;;;;55.85;15.55;;;;;;;;;;4940652;28;20102;-60
2024/03/21 02:26:52;;;;;;;64.45;16.80;;;;;;;;;;4943196;28;20062;-60
2024/03/21 02:29:44;;;;;;;93.93;20.42;;;;;;;;;;4944399;28;20063;-58
2024/03/21 02:32:38;;;;;;;82.70;19.27;;;;;;;;;;4942966;28;20513;-63
2024/03/21 02:35:30;;;;;;;98.65;19.55;;;;;;;;;;4953224;28;20055;-63
2024/03/21 02:38:17;;;;;;;86.28;18.42;;;;;;;;;;4943369;28;20062;-64
2024/03/21 02:41:10;;;;;;;73.00;17.85;;;;;;;;;;4940926;28;20063;-64
2024/03/21 02:43:56;;;;;;;72.05;16.50;;;;;;;;;;4944540;28;20059;-64
2024/03/21 02:46:48;;;;;;;84.95;19.88;;;;;;;;;;4953590;28;20063;-64
2024/03/21 02:49:35;;;;;;;78.03;18.95;;;;;;;;;;4950629;28;20114;-60
2024/03/21 02:52:27;;;;;;;92.97;19.63;;;;;;;;;;4950177;28;20057;-60
2024/03/21 02:55:14;;;;;;;83.45;20.58;;;;;;;;;;4944400;28;20580;-61
2024/03/21 02:58:07;;;;;;;94.07;22.92;;;;;;;;;;4947279;28;20058;-61
2024/03/21 03:00:53;;;;;;;112.90;22.67;;;;;;;;;;4943125;28;20121;-64
2024/03/21 03:03:45;;;;;;;101.20;21.40;;;;;;;;;;4946342;28;20058;-64
2024/03/21 03:06:32;;;;;;;106.40;21.55;;;;;;;;;;4943110;28;20432;-64
2024/03/21 03:09:24;;;;;;;110.85;23.33;;;;;;;;;;4942593;28;20058;-64
2024/03/21 03:12:17;;;;;;;112.30;22.23;;;;;;;;;;4943565;28;20066;-64
2024/03/21 03:15:11;;;;;;;114.65;22.60;;;;;;;;;;4950500;28;20059;-64
2024/03/21 03:18:03;;;;;;;124.25;25.02;;;;;;;;;;4946344;28;20066;-64
2024/03/21 03:20:57;;;;;;;78.63;20.60;;;;;;;;;;4946225;28;20429;-64
2024/03/21 03:23:43;;;;;;;112.78;25.58;;;;;;;;;;4944260;28;20063;-64
2024/03/21 03:26:35;;;;;;;96.65;22.83;;;;;;;;;;4943297;28;20063;-61
2024/03/21 03:29:29;;;;;;;111.00;24.63;;;;;;;;;;4941991;28;20066;-59
2024/03/21 03:32:15;;;;;;;105.57;22.33;;;;;;;;;;4943071;28;20063;-60
2024/03/21 03:37:53;;;;;;;109.45;20.40;;;;;;;;;;4948317;28;20055;-60
2024/03/21 03:40:47;;;;;;;106.25;21.63;;;;;;;;;;4947565;28;20081;-62
2024/03/21 03:43:33;;;;;;;109.57;22.77;;;;;;;;;;4943303;28;20085;-60
2024/03/21 03:46:48;;;;;;;105.55;23.05;;;;;;;;;;4961264;28;20078;-50
2024/03/21 03:49:34;;;;;;;117.97;24.13;;;;;;;;;;4946426;28;20062;-50
2024/03/21 03:52:27;;;;;;;101.50;21.77;;;;;;;;;;4945921;28;20077;-52
2024/03/21 03:55:13;;;;;;;87.28;19.95;;;;;;;;;;4944180;28;20066;-63
2024/03/21 03:58:05;;;;;;;78.65;17.85;;;;;;;;;;4941055;28;20058;-47
2024/03/21 04:00:55;;;;;;;82.80;18.27;;;;;;;;;;4944170;28;20070;-47
2024/03/21 04:03:47;;;;;;;56.20;16.30;;;;;;;;;;4939472;28;20125;-53
2024/03/21 04:06:34;;;;;;;56.20;16.95;;;;;;;;;;4939853;28;20800;-48
2024/03/21 04:09:27;;;;;;;78.35;19.10;;;;;;;;;;4940332;28;20073;-50
2024/03/21 04:12:19;;;;;;;72.43;17.55;;;;;;;;;;4945783;28;20059;-48
2024/03/21 04:15:06;;;;;;;67.18;18.48;;;;;;;;;;4946183;28;20062;-47
2024/03/21 04:18:05;;;;;;;61.13;17.92;;;;;;;;;;4943176;28;20062;-48
2024/03/21 04:20:58;;;;;;;86.65;18.48;;;;;;;;;;4940891;28;20053;-49
2024/03/21 04:23:50;;;;;;;56.67;16.48;;;;;;;;;;4944355;28;20062;-63
2024/03/21 04:26:37;;;;;;;56.85;15.40;;;;;;;;;;4942454;28;20051;-64
2024/03/21 04:29:30;;;;;;;65.60;16.45;;;;;;;;;;4943243;28;20063;-64
2024/03/21 04:32:17;;;;;;;50.15;16.60;;;;;;;;;;4941254;28;20064;-64
2024/03/21 04:35:10;;;;;;;79.53;17.45;;;;;;;;;;4943959;28;20117;-66
2024/03/21 04:37:56;;;;;;;74.10;18.70;;;;;;;;;;4942573;28;20429;-64
2024/03/21 04:40:49;;;;;;;63.22;16.67;;;;;;;;;;4949838;28;20528;-63
2024/03/21 04:43:35;;;;;;;96.07;20.45;;;;;;;;;;4945700;28;20122;-63
2024/03/21 04:46:28;;;;;;;62.83;17.90;;;;;;;;;;4941344;28;20721;-64
2024/03/21 04:49:14;;;;;;;73.32;16.90;;;;;;;;;;4939637;28;20051;-64
2024/03/21 04:52:07;;;;;;;80.10;16.17;;;;;;;;;;4943634;28;21371;-61
2024/03/21 04:54:53;;;;;;;64.85;15.75;;;;;;;;;;4939703;28;20525;-60
2024/03/21 04:57:46;;;;;;;68.03;17.08;;;;;;;;;;4944249;28;20062;-61
2024/03/21 05:00:39;;;;;;;53.40;16.20;;;;;;;;;;4942679;28;20063;-60
2024/03/21 05:03:31;;;;;;;62.83;17.33;;;;;;;;;;4943869;28;20062;-60
2024/03/21 05:06:18;;;;;;;63.45;16.50;;;;;;;;;;4945618;28;20303;-61
2024/03/21 05:09:11;;;;;;;61.47;15.75;;;;;;;;;;4942088;28;20118;-60
2024/03/21 05:11:57;;;;;;;41.95;14.20;;;;;;;;;;4942525;28;20526;-53
2024/03/21 05:14:49;;;;;;;67.22;16.70;;;;;;;;;;4942008;28;20051;-51
2024/03/21 05:17:49;;;;;;;45.17;14.02;;;;;;;;;;4946486;28;20054;-49
2024/03/21 05:20:35;;;;;;;52.20;17.05;;;;;;;;;;4944458;28;20062;-62
2024/03/21 05:23:28;;;;;;;55.40;15.20;;;;;;;;;;4938267;28;20342;-60
2024/03/21 05:26:15;;;;;;;48.25;15.25;;;;;;;;;;4940935;28;20122;-60
2024/03/21 05:29:07;;;;;;;49.65;15.98;;;;;;;;;;4943717;28;20059;-60
2024/03/21 05:32:02;;;;;;;59.97;17.15;;;;;;;;;;4957393;28;20177;-60
2024/03/21 05:34:54;;;;;;;53.33;14.13;;;;;;;;;;4941729;28;20132;-60
2024/03/21 05:37:40;;;;;;;49.58;14.23;;;;;;;;;;4944617;28;20071;-60
2024/03/21 05:40:32;;;;;;;47.20;14.40;;;;;;;;;;4943254;28;20443;-60
2024/03/21 05:43:19;;;;;;;60.38;15.63;;;;;;;;;;4935537;28;20055;-59
2024/03/21 05:46:11;;;;;;;59.60;16.92;;;;;;;;;;4944139;28;20501;-61
2024/03/21 05:48:58;;;;;;;67.22;16.48;;;;;;;;;;4941249;28;20110;-64
2024/03/21 05:51:51;;;;;;;53.30;15.75;;;;;;;;;;4937765;28;20125;-64
2024/03/21 05:54:37;;;;;;;63.17;16.13;;;;;;;;;;4938048;28;20070;-64
2024/03/21 05:57:29;;;;;;;61.47;15.82;;;;;;;;;;4940382;28;20051;-64
2024/03/21 06:00:17;;;;;;;55.60;15.77;;;;;;;;;;4940126;28;20327;-63
2024/03/21 06:03:08;;;;;;;56.47;15.77;;;;;;;;;;4944475;28;20059;-63
2024/03/21 06:05:56;;;;;;;48.63;15.77;;;;;;;;;;4945360;28;20298;-63
2024/03/21 06:08:48;;;;;;;47.08;15.65;;;;;;;;;;4944039;28;20051;-64
2024/03/21 06:11:35;;;;;;;50.72;15.60;;;;;;;;;;4943414;28;20063;-64
2024/03/21 06:14:28;;;;;;;43.97;15.30;;;;;;;;;;4946319;28;20066;-63
2024/03/21 06:17:20;;;;;;;52.50;15.75;;;;;;;;;;4940096;28;20065;-53
2024/03/21 06:20:12;;;;;;;37.00;13.82;;;;;;;;;;4950049;28;20431;-61
2024/03/21 06:22:59;;;;;;;39.80;14.23;;;;;;;;;;4943356;28;20063;-60
2024/03/21 06:25:52;;;;;;;27.27;13.13;;;;;;;;;;4946240;28;20410;-60
2024/03/21 06:28:38;;;;;;;34.25;13.45;;;;;;;;;;4937443;28;20691;-61
2024/03/21 06:31:30;;;;;;;34.22;13.02;;;;;;;;;;4938164;28;20543;-60
2024/03/21 06:34:17;;;;;;;30.48;12.23;;;;;;;;;;4944180;28;20118;-60
2024/03/21 06:37:31;;;;;;;23.25;11.05;;;;;;;;;;4959732;28;20077;-61
2024/03/21 06:40:18;;;;;;;25.80;10.75;;;;;;;;;;4946684;28;20051;-57
2024/03/21 06:43:10;;;;;;;22.65;10.52;;;;;;;;;;4947027;28;20058;-58
2024/03/21 06:45:57;;;;;;;18.17;8.65;;;;;;;;;;4946231;28;20632;-60
2024/03/21 06:48:50;;;;;;;14.95;7.07;;;;;;;;;;4943106;28;20069;-64
2024/03/21 06:51:36;;;;;;;7.63;4.65;;;;;;;;;;4943050;28;20472;-64
2024/03/21 06:54:28;;;;;;;10.18;5.57;;;;;;;;;;4949182;28;20459;-64
2024/03/21 06:57:21;;;;;;;8.82;4.90;;;;;;;;;;4940546;28;20103;-63
2024/03/21 07:00:27;;;;;;;7.95;5.00;;;;;;;;;;4947871;28;20058;-63
2024/03/21 07:03:21;;;;;;;12.63;6.32;;;;;;;;;;4944599;28;20421;-60
2024/03/21 07:06:13;;;;;;;13.02;8.02;;;;;;;;;;4950773;28;20069;-61
2024/03/21 07:09:00;;;;;;;15.63;8.30;;;;;;;;;;4947114;28;20062;-60
2024/03/21 07:11:52;;;;;;;13.93;7.82;;;;;;;;;;4948168;28;20066;-60
2024/03/21 07:14:39;;;;;;;12.38;7.53;;;;;;;;;;4943847;28;20770;-63
2024/03/21 07:17:44;;;;;;;15.73;8.50;;;;;;;;;;4950713;28;20445;-60
2024/03/21 07:20:38;;;;;;;18.48;8.27;;;;;;;;;;4925773;28;20114;-60
2024/03/21 07:23:32;;;;;;;13.68;7.43;;;;;;;;;;4945023;28;20059;-60
2024/03/21 07:26:17;;;;;;;13.23;8.45;;;;;;;;;;4920557;28;20430;-60
2024/03/21 07:29:10;;;;;;;10.38;6.82;;;;;;;;;;4940752;28;20489;-60
2024/03/21 07:31:56;;;;;;;9.45;6.05;;;;;;;;;;4920696;28;20302;-61
2024/03/21 07:34:54;;;;;;;10.30;6.63;;;;;;;;;;4910090;28;20064;-60
2024/03/21 07:37:47;;;;;;;11.70;6.80;;;;;;;;;;4927447;28;20058;-60
2024/03/21 07:40:33;;;;;;;10.68;6.38;;;;;;;;;;4929148;28;20115;-60
2024/03/21 07:43:29;;;;;;;13.15;6.47;;;;;;;;;;4919649;28;20051;-48
2024/03/21 07:46:18;;;;;;;10.90;5.93;;;;;;;;;;4924530;28;20058;-51
2024/03/21 07:49:08;;;;;;;8.93;5.47;;;;;;;;;;4929767;28;20127;-54
2024/03/21 07:52:00;;;;;;;8.27;5.03;;;;;;;;;;4925217;28;20070;-46
2024/03/21 07:54:47;;;;;;;9.38;5.25;;;;;;;;;;4928382;28;20067;-53
2024/03/21 07:57:33;;;;;;;10.20;5.53;;;;;;;;;;4924582;28;20812;-53
2024/03/21 08:00:28;;;;;;;8.15;4.82;;;;;;;;;;4935477;28;20063;-50
2024/03/21 08:03:12;;;;;;;7.28;4.38;;;;;;;;;;4925587;28;20586;-52
2024/03/21 08:06:05;;;;;;;10.15;5.50;;;;;;;;;;4945993;28;20074;-49
2024/03/21 08:08:51;;;;;;;7.63;5.30;;;;;;;;;;4928586;28;20055;-51
2024/03/21 08:11:43;;;;;;;11.35;5.88;;;;;;;;;;4930253;28;20731;-48
2024/03/21 08:14:30;;;;;;;9.05;5.22;;;;;;;;;;4923208;28;20060;-61
2024/03/21 08:17:29;;;;;;;9.25;5.38;;;;;;;;;;4944029;28;20070;-61
2024/03/21 08:20:15;;;;;;;10.32;5.60;;;;;;;;;;4939215;28;20063;-61
2024/03/21 08:23:08;;;;;;;7.95;4.53;;;;;;;;;;4947001;28;20071;-60
2024/03/21 08:25:55;;;;;;;9.63;5.10;;;;;;;;;;4941962;28;20054;-61
2024/03/21 08:28:47;;;;;;;9.02;5.32;;;;;;;;;;4960417;28;20062;-60
2024/03/21 08:31:34;;;;;;;5.88;4.10;;;;;;;;;;4940639;28;20458;-60
2024/03/21 08:34:27;;;;;;;11.07;5.68;;;;;;;;;;4944633;28;20114;-61
2024/03/21 08:37:13;;;;;;;10.20;5.05;;;;;;;;;;4942523;28;20067;-61
2024/03/21 08:40:06;;;;;;;9.68;4.93;;;;;;;;;;4946325;28;20118;-59
2024/03/21 08:42:52;;;;;;;10.88;5.63;;;;;;;;;;4945326;28;20682;-60
2024/03/21 08:45:48;;;;;;;9.82;5.65;;;;;;;;;;4943926;28;20059;-60
2024/03/21 08:48:40;;;;;;;10.40;5.75;;;;;;;;;;4942151;28;20169;-60
2024/03/21 08:51:33;;;;;;;12.93;6.55;;;;;;;;;;4948257;28;20069;-60
2024/03/21 08:54:27;;;;;;;10.60;5.70;;;;;;;;;;4944794;28;20055;-57
2024/03/21 08:57:20;;;;;;;8.90;4.78;;;;;;;;;;4943275;28;20079;-61
2024/03/21 09:00:06;;;;;;;6.18;4.00;;;;;;;;;;4942445;28;20058;-61
2024/03/21 09:03:02;;;;;;;7.15;4.15;;;;;;;;;;4943081;28;20059;-61
2024/03/21 09:05:48;;;;;;;10.85;5.00;;;;;;;;;;4942123;28;20055;-60
2024/03/21 09:08:41;;;;;;;8.48;4.45;;;;;;;;;;4943314;28;20101;-60
2024/03/21 09:11:34;;;;;;;10.82;4.82;;;;;;;;;;4945194;28;20475;-64
2024/03/21 09:14:20;;;;;;;11.00;6.20;;;;;;;;;;4940844;28;20050;-63
2024/03/21 09:17:19;;;;;;;10.68;6.70;;;;;;;;;;4938633;28;20559;-64
2024/03/21 09:20:13;;;;;;;10.88;5.97;;;;;;;;;;4942861;28;20500;-65
2024/03/21 09:23:05;;;;;;;7.90;4.50;;;;;;;;;;4940936;28;20118;-63
2024/03/21 09:25:58;;;;;;;7.85;4.45;;;;;;;;;;4939896;28;20059;-60
2024/03/21 09:28:54;;;;;;;8.55;5.30;;;;;;;;;;4943333;28;20058;-61
2024/03/21 09:31:44;;;;;;;8.68;5.38;;;;;;;;;;4945755;28;20063;-61
2024/03/21 09:34:30;;;;;;;9.07;5.32;;;;;;;;;;4943190;28;20121;-61
2024/03/21 09:37:23;;;;;;;9.05;5.22;;;;;;;;;;4942165;28;20054;-61
2024/03/21 09:40:10;;;;;;;6.00;3.88;;;;;;;;;;4940883;28;20473;-48
2024/03/21 09:43:04;;;;;;;7.50;4.72;;;;;;;;;;4944782;28;20128;-49
2024/03/21 09:45:54;;;;;;;12.15;4.45;;;;;;;;;;4944846;28;20141;-47
2024/03/21 09:48:47;;;;;;;7.80;4.20;;;;;;;;;;4954776;28;20901;-47
2024/03/21 09:51:33;;;;;;;8.00;4.60;;;;;;;;;;4945635;28;20058;-51
2024/03/21 09:54:26;;;;;;;5.85;3.78;;;;;;;;;;4957486;28;20126;-46
2024/03/21 09:57:13;;;;;;;8.25;4.40;;;;;;;;;;4945571;28;20063;-51
2024/03/21 10:00:06;;;;;;;6.72;4.05;;;;;;;;;;4942852;28;20058;-51
2024/03/21 10:02:59;;;;;;;8.10;4.47;;;;;;;;;;4955762;28;20544;-50
2024/03/21 10:05:45;;;;;;;6.13;3.88;;;;;;;;;;4941655;28;20058;-60
2024/03/21 10:08:38;;;;;;;6.50;3.70;;;;;;;;;;4957530;28;20062;-65
2024/03/21 10:11:24;;;;;;;5.30;3.22;;;;;;;;;;4944186;28;20059;-64
2024/03/21 10:14:17;;;;;;;17.73;10.02;;;;;;;;;;4945406;28;20063;-65
2024/03/21 10:17:09;;;;;;;12.90;7.70;;;;;;;;;;4944114;28;20054;-64
2024/03/21 10:20:10;;;;;;;6.32;4.07;;;;;;;;;;4946055;28;20070;-65
2024/03/21 10:23:03;;;;;;;4.93;3.55;;;;;;;;;;4947126;28;20067;-59
2024/03/21 10:25:56;;;;;;;6.90;3.58;;;;;;;;;;4958215;28;20067;-59
2024/03/21 10:28:42;;;;;;;7.18;3.78;;;;;;;;;;4945233;28;20397;-59
2024/03/21 10:31:35;;;;;;;5.47;3.67;;;;;;;;;;4944025;28;20056;-60
2024/03/21 10:34:23;;;;;;;4.97;3.42;;;;;;;;;;4943813;28;20050;-60
2024/03/21 10:37:17;;;;;;;8.30;3.80;;;;;;;;;;4961668;28;20074;-61
2024/03/21 10:40:03;;;;;;;6.10;3.63;;;;;;;;;;4945574;28;20059;-60
2024/03/21 10:42:57;;;;;;;5.03;3.53;;;;;;;;;;4948566;28;20058;-60
2024/03/21 10:45:44;;;;;;;5.30;3.30;;;;;;;;;;4945784;28;20055;-61
2024/03/21 10:48:39;;;;;;;6.13;3.30;;;;;;;;;;4949624;28;20066;-61
2024/03/21 10:51:25;;;;;;;3.03;2.30;;;;;;;;;;4947916;28;20124;-61
2024/03/21 10:54:19;;;;;;;4.03;2.50;;;;;;;;;;4946716;28;20062;-61
2024/03/21 10:57:18;;;;;;;2.80;2.50;;;;;;;;;;4947460;28;20058;-61
2024/03/21 11:00:13;;;;;;;5.05;3.03;;;;;;;;;;4952528;28;20241;-61
2024/03/21 11:02:59;;;;;;;3.50;2.50;;;;;;;;;;4941178;28;20543;-50
2024/03/21 11:05:59;;;;;;;5.60;3.80;;;;;;;;;;4946141;28;20066;-61
2024/03/21 11:08:55;;;;;;;5.13;3.15;;;;;;;;;;4941069;28;20070;-61
2024/03/21 11:11:48;;;;;;;5.25;2.97;;;;;;;;;;4946579;28;20073;-60
2024/03/21 11:14:34;;;;;;;4.18;2.58;;;;;;;;;;4941008;28;20063;-60
2024/03/21 11:17:34;;;;;;;4.25;2.60;;;;;;;;;;4943997;28;20050;-60
2024/03/21 11:20:20;;;;;;;2.78;2.30;;;;;;;;;;4945107;28;20048;-49
2024/03/21 11:23:13;;;;;;;3.00;2.20;;;;;;;;;;4950305;28;20050;-48
2024/03/21 11:25:59;;;;;;;3.65;2.50;;;;;;;;;;4946236;28;20066;-51
2024/03/21 11:28:52;;;;;;;2.92;2.20;;;;;;;;;;4946942;28;20054;-49
2024/03/21 11:31:41;;;;;;;3.78;2.20;;;;;;;;;;4942215;28;20780;-61
2024/03/21 11:34:34;;;;;;;4.78;2.40;;;;;;;;;;4957572;28;20062;-60
2024/03/21 11:37:20;;;;;;;3.70;2.28;;;;;;;;;;4940065;28;20118;-59
2024/03/21 11:40:16;;;;;;;3.70;2.58;;;;;;;;;;4957893;28;20109;-60
2024/03/21 11:43:06;;;;;;;3.63;2.80;;;;;;;;;;4942244;28;20118;-59
2024/03/21 11:45:59;;;;;;;5.75;2.90;;;;;;;;;;4946638;28;20255;-60
2024/03/21 11:48:59;;;;;;;3.40;2.33;;;;;;;;;;4944077;28;20058;-61
2024/03/21 11:51:52;;;;;;;3.33;2.53;;;;;;;;;;4949334;28;20063;-61
2024/03/21 11:54:38;;;;;;;3.25;2.50;;;;;;;;;;4947277;28;20082;-61
2024/03/21 11:57:31;;;;;;;4.90;2.92;;;;;;;;;;4946095;28;20055;-62
2024/03/21 12:00:44;;;;;;;3.95;2.50;;;;;;;;;;4946229;28;20129;-61
2024/03/21 12:03:38;;;;;;;3.95;2.53;;;;;;;;;;4950164;28;20061;-61
2024/03/21 12:06:31;;;;;;;2.92;2.50;;;;;;;;;;4947169;28;20054;-61
2024/03/21 12:09:17;;;;;;;3.15;2.60;;;;;;;;;;4941348;28;20581;-61
2024/03/21 12:12:13;;;;;;;3.03;2.00;;;;;;;;;;4944910;28;20386;-61
2024/03/21 12:14:59;;;;;;;4.55;2.72;;;;;;;;;;4940262;28;20099;-61
2024/03/21 12:18:04;;;;;;;2.75;2.30;;;;;;;;;;4940996;28;20055;-61
2024/03/21 12:20:58;;;;;;;3.00;2.45;;;;;;;;;;4941478;28;20058;-61
2024/03/21 12:23:51;;;;;;;4.40;2.85;;;;;;;;;;4940810;28;20067;-61
2024/03/21 12:26:37;;;;;;;2.85;2.33;;;;;;;;;;4944471;28;20133;-52
2024/03/21 12:29:30;;;;;;;2.60;1.90;;;;;;;;;;4942651;28;20054;-61
2024/03/21 12:32:16;;;;;;;3.13;2.13;;;;;;;;;;4945651;28;20063;-61
2024/03/21 12:35:10;;;;;;;3.17;2.40;;;;;;;;;;4948690;28;20058;-61
2024/03/21 12:37:57;;;;;;;3.28;2.20;;;;;;;;;;4941462;28;20070;-61
2024/03/21 12:40:48;;;;;;;4.43;2.17;;;;;;;;;;4944172;28;20062;-60
2024/03/21 12:43:34;;;;;;;5.00;2.22;;;;;;;;;;4941522;28;20054;-61
2024/03/21 12:46:27;;;;;;;2.95;2.10;;;;;;;;;;4946316;28;20059;-59
2024/03/21 12:49:13;;;;;;;2.67;2.20;;;;;;;;;;4946126;28;20500;-59
2024/03/21 12:52:06;;;;;;;4.47;2.20;;;;;;;;;;4948637;28;20066;-59
2024/03/21 12:54:52;;;;;;;3.28;2.53;;;;;;;;;;4948220;28;20465;-61
2024/03/21 12:57:45;;;;;;;3.50;2.47;;;;;;;;;;4947035;28;20311;-61
2024/03/21 13:00:32;;;;;;;3.95;2.70;;;;;;;;;;4946121;28;20054;-52
2024/03/21 13:03:25;;;;;;;3.35;2.25;;;;;;;;;;4938513;28;20061;-49
2024/03/21 13:06:11;;;;;;;1.88;1.73;;;;;;;;;;4940743;28;20054;-51
2024/03/21 13:09:04;;;;;;;3.17;2.25;;;;;;;;;;4944584;28;20055;-51
2024/03/21 13:11:57;;;;;;;3.55;2.10;;;;;;;;;;4945749;28;20077;-47
2024/03/21 13:14:44;;;;;;;2.03;1.83;;;;;;;;;;4940735;28;20110;-49
2024/03/21 13:17:49;;;;;;;3.10;2.70;;;;;;;;;;4940643;28;20658;-47
2024/03/21 13:20:43;;;;;;;8.25;4.95;;;;;;;;;;4946541;28;20529;-51
2024/03/21 13:23:36;;;;;;;3.72;2.40;;;;;;;;;;4945812;28;20062;-64
2024/03/21 13:26:22;;;;;;;2.53;1.77;;;;;;;;;;4943471;28;20734;-64
2024/03/21 13:29:15;;;;;;;2.08;1.88;;;;;;;;;;4948876;28;20055;-54
2024/03/21 13:32:08;;;;;;;2.83;2.08;;;;;;;;;;4945261;28;20062;-51
2024/03/21 13:34:54;;;;;;;3.53;2.28;;;;;;;;;;4939349;28;20047;-54
2024/03/21 13:37:48;;;;;;;3.25;2.05;;;;;;;;;;4947566;28;20591;-54
2024/03/21 13:40:41;;;;;;;2.30;2.10;;;;;;;;;;4946699;28;20065;-53
2024/03/21 13:43:27;;;;;;;3.45;2.28;;;;;;;;;;4948378;28;20058;-61
2024/03/21 13:46:20;;;;;;;4.65;2.25;;;;;;;;;;4950460;28;20521;-60
2024/03/21 13:49:07;;;;;;;2.97;2.20;;;;;;;;;;4947144;28;20094;-60
2024/03/21 13:52:00;;;;;;;2.88;2.22;;;;;;;;;;4950973;28;20065;-64
2024/03/21 13:54:46;;;;;;;3.03;2.42;;;;;;;;;;4948397;28;20582;-60
2024/03/21 13:57:39;;;;;;;5.88;2.78;;;;;;;;;;4949681;28;20063;-59
2024/03/21 14:00:30;;;;;;;3.90;2.80;;;;;;;;;;4952514;28;20061;-59
2024/03/21 14:03:18;;;;;;;14.88;9.95;;;;;;;;;;4944292;28;20065;-60
2024/03/21 14:06:08;;;;;;;9.70;5.10;;;;;;;;;;4944631;28;20059;-59
2024/03/21 14:08:57;;;;;;;23.17;13.55;;;;;;;;;;4945245;28;20062;-60
2024/03/21 14:11:43;;;;;;;6.25;4.20;;;;;;;;;;4946318;28;20058;-51
2024/03/21 14:14:36;;;;;;;9.60;6.90;;;;;;;;;;4950184;28;20051;-51
2024/03/21 14:17:22;;;;;;;2.95;2.28;;;;;;;;;;4943473;28;20127;-54
2024/03/21 14:20:15;;;;;;;2.60;2.25;;;;;;;;;;4960595;28;20054;-50
2024/03/21 14:23:09;;;;;;;4.38;2.92;;;;;;;;;;4949416;28;20067;-61
2024/03/21 14:26:03;;;;;;;3.10;2.65;;;;;;;;;;4959690;28;20059;-61
2024/03/21 14:28:49;;;;;;;3.40;2.75;;;;;;;;;;4950800;28;20066;-61
2024/03/21 14:31:40;;;;;;;2.70;2.28;;;;;;;;;;4951750;28;20409;-60
2024/03/21 14:34:26;;;;;;;13.10;8.15;;;;;;;;;;4945253;28;20069;-61
2024/03/21 14:37:19;;;;;;;5.13;3.20;;;;;;;;;;4948413;28;20064;-61
2024/03/21 14:40:07;;;;;;;4.28;3.20;;;;;;;;;;4947401;28;20055;-64
2024/03/21 14:42:58;;;;;;;6.00;3.47;;;;;;;;;;4949840;28;20088;-64
2024/03/21 14:45:44;;;;;;;7.38;4.35;;;;;;;;;;4946703;28;20529;-64
2024/03/21 14:48:37;;;;;;;3.65;2.60;;;;;;;;;;4945019;28;20119;-61
2024/03/21 14:51:23;;;;;;;7.32;3.97;;;;;;;;;;4940914;28;20058;-58
2024/03/21 14:54:16;;;;;;;18.85;12.40;;;;;;;;;;4944829;28;20050;-59
2024/03/21 14:57:09;;;;;;;10.85;6.97;;;;;;;;;;4945181;28;20062;-59
2024/03/21 14:59:55;;;;;;;8.93;6.72;;;;;;;;;;4945625;28;20512;-60
2024/03/21 15:02:48;;;;;;;5.97;3.13;;;;;;;;;;4957906;28;20547;-59
2024/03/21 15:05:34;;;;;;;2.40;1.92;;;;;;;;;;4942556;28;20074;-60
2024/03/21 15:08:27;;;;;;;2.75;2.10;;;;;;;;;;4947991;28;20069;-59
2024/03/21 15:11:13;;;;;;;4.00;3.50;;;;;;;;;;4941489;28;20051;-60
2024/03/21 15:14:06;;;;;;;7.13;5.68;;;;;;;;;;4945079;28;20520;-60
2024/03/21 15:16:59;;;;;;;5.57;3.10;;;;;;;;;;4942388;28;20067;-59
2024/03/21 15:19:58;;;;;;;5.60;2.42;;;;;;;;;;4958697;28;20066;-65
2024/03/21 15:22:51;;;;;;;4.05;2.42;;;;;;;;;;4945952;28;20132;-48
2024/03/21 15:25:44;;;;;;;4.00;1.80;;;;;;;;;;4948904;28;20055;-46
2024/03/21 15:28:37;;;;;;;2.70;1.90;;;;;;;;;;4949463;28;20051;-50
2024/03/21 15:31:23;;;;;;;2.20;1.83;;;;;;;;;;4946006;28;20063;-50
2024/03/21 15:34:18;;;;;;;3.30;2.58;;;;;;;;;;4944930;28;20515;-50
2024/03/21 15:37:02;;;;;;;4.03;2.78;;;;;;;;;;4945273;28;20061;-66
2024/03/21 15:39:55;;;;;;;2.85;2.42;;;;;;;;;;4939292;28;20070;-66
2024/03/21 15:42:48;;;;;;;7.03;3.80;;;;;;;;;;4953748;28;20058;-65
2024/03/21 15:45:41;;;;;;;3.50;2.60;;;;;;;;;;4946389;28;20062;-64
2024/03/21 15:48:27;;;;;;;2.38;2.10;;;;;;;;;;4943344;28;20058;-59
2024/03/21 15:51:20;;;;;;;5.13;2.28;;;;;;;;;;4958894;28;20055;-59
2024/03/21 15:54:13;;;;;;;5.15;3.40;;;;;;;;;;4942859;28;20058;-59
2024/03/21 15:56:59;;;;;;;3.35;2.75;;;;;;;;;;4944101;28;20523;-59
2024/03/21 15:59:32;;;;;;;4.85;3.97;;;;;;;;;;4943101;28;20437;-60
2024/03/21 16:01:58;;;;;;;8.05;5.25;;;;;;;;;;4942863;28;20087;-59
2024/03/21 16:04:24;;;;;;;6.90;4.95;;;;;;;;;;4942879;28;20096;-64
2024/03/21 16:06:57;;;;;;;5.35;3.60;;;;;;;;;;4958436;28;21025;-64
2024/03/21 16:09:43;;;;;;;5.53;4.50;;;;;;;;;;4942258;28;20054;-63
2024/03/21 16:12:37;;;;;;;7.25;5.30;;;;;;;;;;4945694;28;20528;-64
2024/03/21 16:15:23;;;;;;;6.05;4.40;;;;;;;;;;4947021;28;20070;-60
2024/03/21 16:18:22;;;;;;;6.38;2.92;;;;;;;;;;4940444;28;20683;-64
2024/03/21 16:21:14;;;;;;;3.63;2.72;;;;;;;;;;4939881;28;20703;-64
2024/03/21 16:24:07;;;;;;;3.28;2.53;;;;;;;;;;4958990;28;20051;-64
2024/03/21 16:26:53;;;;;;;2.95;2.38;;;;;;;;;;4944878;28;20062;-63
2024/03/21 16:29:46;;;;;;;2.53;2.10;;;;;;;;;;4945497;28;20062;-63
2024/03/21 16:32:32;;;;;;;3.85;2.53;;;;;;;;;;4941917;28;20059;-59
2024/03/21 16:35:25;;;;;;;3.97;2.50;;;;;;;;;;4941345;28;20580;-59
2024/03/21 16:38:11;;;;;;;3.78;2.53;;;;;;;;;;4946925;28;20051;-59
2024/03/21 16:41:07;;;;;;;3.65;2.70;;;;;;;;;;4958762;28;20078;-59
2024/03/21 16:43:51;;;;;;;6.82;3.95;;;;;;;;;;4943754;28;20372;-65
2024/03/21 16:46:45;;;;;;;6.55;4.43;;;;;;;;;;4946114;28;20062;-60